createdAt,value
2023-05-18T00:01:56.502Z,1.40
2023-05-18T00:04:06.181Z,1.50
2023-05-18T00:06:15.658Z,1.50
2023-05-18T00:08:25.109Z,1.30
2023-05-18T00:10:34.299Z,1.40
2023-05-18T00:12:43.745Z,1.20
2023-05-18T00:14:52.968Z,1.70
2023-05-18T00:17:03.479Z,1.20
2023-05-18T00:19:15.319Z,1.50
2023-05-18T00:21:30.889Z,1.30
2023-05-18T00:23:40.529Z,1.10
2023-05-18T00:25:50.086Z,1.20
2023-05-18T00:27:59.225Z,1.30
2023-05-18T00:30:09.850Z,1.20
2023-05-18T00:32:19.264Z,1.40
2023-05-18T00:34:28.901Z,1.50
2023-05-18T00:36:39.229Z,1.40
2023-05-18T00:38:48.592Z,1.30
2023-05-18T00:40:57.773Z,1.10
2023-05-18T00:43:07.211Z,1.20
2023-05-18T00:45:16.815Z,1.90
2023-05-18T00:47:26.040Z,1.30
2023-05-18T00:49:35.210Z,1.30
2023-05-18T00:51:48.132Z,1.30
2023-05-18T00:53:58.506Z,1.20
2023-05-18T00:56:08.913Z,1.30
2023-05-18T00:58:18.808Z,1.10
2023-05-18T01:00:28.785Z,1.40
2023-05-18T01:02:43.177Z,1.30
2023-05-18T01:04:53.326Z,1.20
2023-05-18T01:07:07.122Z,1.10
2023-05-18T01:09:17.013Z,1.10
2023-05-18T01:11:35.563Z,1.30
2023-05-18T01:13:55.801Z,1.20
2023-05-18T01:16:08.478Z,1.30
2023-05-18T01:18:25.406Z,1.60
2023-05-18T01:20:39.400Z,1.80
2023-05-18T01:23:01.893Z,1.60
2023-05-18T01:25:20.080Z,1.60
2023-05-18T01:27:29.549Z,1.40
2023-05-18T01:29:40.072Z,1.20
2023-05-18T01:33:57.135Z,1.50
2023-05-18T01:36:07.024Z,1.20
2023-05-18T01:38:17.016Z,1.40
2023-05-18T01:40:30.050Z,1.10
2023-05-18T01:42:46.675Z,1.20
2023-05-18T01:45:04.346Z,1.10
2023-05-18T01:47:17.428Z,1.40
2023-05-18T01:49:32.875Z,1.50
2023-05-18T01:51:47.885Z,1.80
2023-05-18T01:54:04.980Z,1.60
2023-05-18T01:56:15.979Z,1.20
2023-05-18T02:00:33.323Z,1.80
2023-05-18T02:02:43.048Z,1.80
2023-05-18T02:04:53.059Z,1.70
2023-05-18T02:07:02.469Z,1.80
2023-05-18T02:09:12.566Z,1.50
2023-05-18T02:11:22.227Z,2.20
2023-05-18T02:13:31.491Z,1.40
2023-05-18T02:15:40.598Z,1.80
2023-05-18T02:17:49.974Z,1.60
2023-05-18T02:19:59.081Z,1.60
2023-05-18T02:22:09.283Z,1.60
2023-05-18T02:24:19.250Z,1.70
2023-05-18T02:26:28.285Z,1.60
2023-05-18T02:28:40.218Z,1.50
2023-05-18T02:30:49.693Z,1.50
2023-05-18T02:32:58.789Z,1.60
2023-05-18T02:35:09.698Z,1.60
2023-05-18T02:37:19.549Z,1.60
2023-05-18T02:39:29.171Z,1.50
2023-05-18T02:41:39.200Z,1.40
2023-05-18T02:43:48.783Z,1.00
2023-05-18T02:45:58.304Z,1.80
2023-05-18T02:48:08.006Z,1.50
2023-05-18T02:50:18.268Z,1.50
2023-05-18T02:52:28.143Z,1.50
2023-05-18T02:54:37.697Z,1.60
2023-05-18T02:56:49.337Z,1.60
2023-05-18T02:59:19.185Z,2.00
2023-05-18T03:01:29.322Z,1.50
2023-05-18T03:03:38.717Z,1.60
2023-05-18T03:05:47.967Z,1.60
2023-05-18T03:07:58.039Z,1.50
2023-05-18T03:10:09.340Z,1.40
2023-05-18T03:14:25.916Z,1.80
2023-05-18T03:16:39.127Z,1.70
2023-05-18T03:18:52.402Z,1.80
2023-05-18T03:21:02.380Z,1.70
2023-05-18T03:23:12.128Z,2.20
2023-05-18T03:25:22.843Z,2.00
2023-05-18T03:27:32.177Z,1.90
2023-05-18T03:29:41.970Z,2.00
2023-05-18T03:31:51.627Z,2.20
2023-05-18T03:34:01.161Z,1.90
2023-05-18T03:36:13.367Z,1.90
2023-05-18T03:38:23.036Z,2.00
2023-05-18T03:40:39.102Z,2.50
2023-05-18T03:42:48.323Z,2.00
2023-05-18T03:44:57.540Z,2.00
2023-05-18T03:47:07.080Z,2.30
2023-05-18T03:49:16.216Z,1.90
2023-05-18T03:51:27.123Z,2.50
2023-05-18T03:53:36.613Z,2.00
2023-05-18T03:55:45.807Z,2.30
2023-05-18T03:57:55.339Z,2.40
2023-05-18T04:00:13.810Z,2.40
2023-05-18T04:04:33.691Z,2.10
2023-05-18T04:06:42.703Z,2.10
2023-05-18T04:08:52.455Z,2.60
2023-05-18T04:11:01.635Z,2.20
2023-05-18T04:13:10.921Z,2.10
2023-05-18T04:15:20.182Z,2.20
2023-05-18T04:17:30.227Z,2.10
2023-05-18T04:19:40.795Z,2.00
2023-05-18T04:21:50.087Z,2.30
2023-05-18T04:24:03.292Z,2.60
2023-05-18T04:26:12.397Z,2.60
2023-05-18T04:28:21.730Z,2.40
2023-05-18T04:30:32.223Z,2.70
2023-05-18T04:32:43.403Z,2.80
2023-05-18T04:34:53.108Z,2.70
2023-05-18T04:37:03.477Z,2.50
2023-05-18T04:41:22.588Z,2.20
2023-05-18T04:43:31.809Z,2.50
2023-05-18T04:45:41.849Z,2.10
2023-05-18T04:47:54.326Z,2.40
2023-05-18T04:50:04.448Z,2.40
2023-05-18T04:52:14.190Z,2.70
2023-05-18T04:54:23.698Z,2.70
2023-05-18T04:56:32.809Z,2.70
2023-05-18T04:58:46.155Z,2.60
2023-05-18T05:00:55.867Z,2.30
2023-05-18T05:03:07.665Z,2.50
2023-05-18T05:05:17.108Z,2.20
2023-05-18T05:07:26.669Z,2.60
2023-05-18T05:09:36.352Z,3.00
2023-05-18T05:11:45.873Z,3.30
2023-05-18T05:13:55.323Z,2.30
2023-05-18T05:16:04.897Z,2.30
2023-05-18T05:18:23.225Z,2.40
2023-05-18T05:20:32.398Z,2.50
2023-05-18T05:22:41.690Z,2.30
2023-05-18T05:27:00.288Z,2.10
2023-05-18T05:29:09.418Z,3.00
2023-05-18T05:31:19.538Z,2.10
2023-05-18T05:33:30.217Z,2.20
2023-05-18T05:35:39.489Z,2.40
2023-05-18T05:37:48.981Z,2.30
2023-05-18T05:39:59.720Z,2.90
2023-05-18T05:42:10.684Z,2.90
2023-05-18T05:44:20.112Z,2.50
2023-05-18T05:46:29.607Z,2.60
2023-05-18T05:48:40.537Z,2.00
2023-05-18T05:50:50.565Z,2.50
2023-05-18T05:53:00.283Z,2.20
2023-05-18T05:55:11.558Z,2.10
2023-05-18T05:57:20.976Z,2.30
2023-05-18T05:59:30.262Z,2.60
2023-05-18T06:01:40.391Z,2.80
2023-05-18T06:03:49.935Z,2.20
2023-05-18T06:05:59.596Z,1.90
2023-05-18T06:08:10.293Z,2.40
2023-05-18T06:10:20.651Z,2.00
2023-05-18T06:12:30.343Z,2.40
2023-05-18T06:14:39.362Z,2.20
2023-05-18T06:16:49.249Z,2.30
2023-05-18T06:18:59.096Z,2.50
2023-05-18T06:21:08.361Z,2.20
2023-05-18T06:23:22.684Z,2.70
2023-05-18T06:25:37.761Z,2.70
2023-05-18T06:27:52.451Z,2.50
2023-05-18T06:30:22.125Z,2.30
2023-05-18T06:32:49.549Z,2.80
2023-05-18T06:34:58.834Z,2.20
2023-05-18T06:37:09.210Z,3.40
2023-05-18T06:39:18.346Z,2.90
2023-05-18T06:41:28.107Z,2.30
2023-05-18T06:43:37.269Z,3.30
2023-05-18T06:46:00.636Z,3.20
2023-05-18T06:48:17.573Z,2.70
2023-05-18T06:50:27.231Z,3.10
2023-05-18T06:52:37.228Z,2.90
2023-05-18T06:54:46.413Z,2.70
2023-05-18T06:56:56.782Z,2.50
2023-05-18T06:59:06.730Z,2.50
2023-05-18T07:01:16.353Z,2.80
2023-05-18T07:03:27.294Z,3.10
2023-05-18T07:05:39.186Z,2.50
2023-05-18T07:07:48.961Z,2.80
2023-05-18T07:09:59.337Z,2.80
2023-05-18T07:12:09.909Z,2.70
2023-05-18T07:14:18.973Z,2.70
2023-05-18T07:16:29.938Z,2.90
2023-05-18T07:18:40.292Z,2.50
2023-05-18T07:20:49.398Z,2.70
2023-05-18T07:22:58.587Z,2.70
2023-05-18T07:25:08.472Z,2.80
2023-05-18T07:27:18.844Z,2.60
2023-05-18T07:29:28.193Z,2.90
2023-05-18T07:31:39.453Z,2.80
2023-05-18T07:33:49.224Z,2.80
2023-05-18T07:35:58.847Z,2.60
2023-05-18T07:38:07.889Z,2.80
2023-05-18T07:40:17.274Z,3.00
2023-05-18T07:42:26.682Z,2.70
2023-05-18T07:44:36.044Z,2.70
2023-05-18T07:46:45.345Z,2.40
2023-05-18T07:48:54.955Z,2.70
2023-05-18T07:51:04.083Z,2.80
2023-05-18T07:53:13.368Z,3.10
2023-05-18T07:55:22.633Z,2.90
2023-05-18T07:57:31.893Z,2.80
2023-05-18T07:59:41.067Z,2.80
2023-05-18T08:01:50.534Z,2.50
2023-05-18T08:04:00.421Z,2.70
2023-05-18T08:06:10.094Z,2.90
2023-05-18T08:08:19.223Z,3.00
2023-05-18T08:10:29.172Z,3.00
2023-05-18T08:12:38.917Z,2.60
2023-05-18T08:14:48.059Z,2.70
2023-05-18T08:16:57.354Z,3.10
2023-05-18T08:19:06.627Z,3.20
2023-05-18T08:21:15.738Z,2.90
2023-05-18T08:23:25.380Z,3.50
2023-05-18T08:25:34.433Z,2.70
2023-05-18T08:27:43.520Z,2.70
2023-05-18T08:29:52.845Z,3.10
2023-05-18T08:32:02.002Z,3.00
2023-05-18T08:34:11.847Z,3.40
2023-05-18T08:36:21.438Z,3.50
2023-05-18T08:38:31.750Z,3.20
2023-05-18T08:40:45.047Z,2.80
2023-05-18T08:43:04.251Z,3.10
2023-05-18T08:45:17.251Z,3.20
2023-05-18T08:47:28.220Z,3.10
2023-05-18T08:49:38.268Z,3.30
2023-05-18T08:51:50.000Z,2.60
2023-05-18T08:54:00.457Z,3.10
2023-05-18T08:56:12.476Z,3.30
2023-05-18T08:58:29.289Z,3.30
2023-05-18T09:00:38.758Z,2.50
2023-05-18T09:02:49.429Z,2.90
2023-05-18T09:05:00.406Z,3.10
2023-05-18T09:07:10.927Z,3.10
2023-05-18T09:09:20.026Z,3.00
2023-05-18T09:11:31.175Z,2.80
2023-05-18T09:15:47.974Z,3.10
2023-05-18T09:17:57.665Z,3.30
2023-05-18T09:20:07.873Z,3.50
2023-05-18T09:22:18.486Z,3.10
2023-05-18T09:24:28.367Z,3.40
2023-05-18T09:26:38.301Z,3.10
2023-05-18T09:28:49.803Z,3.10
2023-05-18T09:30:59.284Z,3.00
2023-05-18T09:33:17.591Z,3.30
2023-05-18T09:35:28.727Z,3.30
2023-05-18T09:37:38.189Z,3.70
2023-05-18T09:39:47.739Z,3.00
2023-05-18T09:42:00.607Z,3.70
2023-05-18T09:44:10.509Z,3.20
2023-05-18T09:46:21.155Z,3.40
2023-05-18T09:48:31.283Z,3.30
2023-05-18T09:50:40.431Z,3.50
2023-05-18T09:52:50.605Z,3.30
2023-05-18T09:55:04.925Z,3.50
2023-05-18T09:57:14.480Z,3.70
2023-05-18T09:59:24.848Z,3.40
2023-05-18T10:05:05.809Z,3.30
2023-05-18T10:07:28.394Z,3.40
2023-05-18T10:09:48.460Z,3.30
2023-05-18T10:12:04.210Z,3.50
2023-05-18T10:14:36.990Z,3.30
2023-05-18T10:16:51.667Z,3.10
2023-05-18T10:19:25.209Z,3.10
2023-05-18T10:21:46.475Z,3.10
2023-05-18T10:24:09.168Z,3.20
2023-05-18T10:26:24.848Z,3.20
2023-05-18T10:28:47.678Z,3.50
2023-05-18T10:31:01.594Z,3.10
2023-05-18T10:33:29.566Z,3.30
2023-05-18T10:36:00.533Z,3.40
2023-05-18T10:38:24.535Z,3.30
2023-05-18T10:40:56.536Z,3.40
2023-05-18T10:43:28.286Z,3.60
2023-05-18T10:45:54.323Z,3.50
2023-05-18T10:48:15.522Z,3.30
2023-05-18T10:50:29.857Z,3.00
2023-05-18T10:53:01.072Z,3.50
2023-05-18T10:55:31.874Z,3.50
2023-05-18T11:00:09.660Z,3.50
2023-05-18T11:02:40.562Z,2.80
2023-05-18T11:07:31.010Z,3.00
2023-05-18T11:10:02.785Z,3.60
2023-05-18T11:12:35.436Z,3.80
2023-05-18T11:15:05.738Z,3.40
2023-05-18T11:17:27.488Z,3.50
2023-05-18T11:19:38.451Z,3.40
2023-05-18T11:21:56.637Z,3.30
2023-05-18T11:24:26.823Z,3.40
2023-05-18T11:26:57.253Z,3.10
2023-05-18T11:29:32.085Z,3.10
2023-05-18T11:32:02.554Z,3.10
2023-05-18T11:34:45.518Z,3.60
2023-05-18T11:37:19.011Z,3.70
2023-05-18T11:40:11.632Z,3.50
2023-05-18T11:42:41.838Z,3.90
2023-05-18T11:45:10.439Z,4.00
2023-05-18T11:47:42.017Z,3.60
2023-05-18T11:50:14.426Z,3.70
2023-05-18T11:52:53.905Z,3.30
2023-05-18T11:55:07.858Z,3.30
2023-05-18T11:57:28.665Z,3.30
2023-05-18T12:00:01.576Z,3.40
2023-05-18T12:02:33.215Z,3.60
2023-05-18T12:05:03.772Z,3.80
2023-05-18T12:07:13.938Z,3.70
2023-05-18T12:09:45.996Z,3.30
2023-05-18T12:14:45.516Z,3.40
2023-05-18T12:17:15.207Z,3.70
2023-05-18T12:19:49.930Z,4.00
2023-05-18T12:22:12.683Z,3.10
2023-05-18T12:24:32.676Z,3.40
2023-05-18T12:27:07.334Z,3.10
2023-05-18T12:29:39.672Z,3.20
2023-05-18T12:31:59.485Z,2.90
2023-05-18T12:34:32.325Z,3.40
2023-05-18T12:36:53.710Z,3.00
2023-05-18T12:39:23.486Z,3.10
2023-05-18T12:41:52.815Z,3.40
2023-05-18T12:44:22.884Z,2.80
2023-05-18T12:46:54.224Z,3.00
2023-05-18T12:49:07.489Z,3.20
2023-05-18T12:53:52.434Z,2.70
2023-05-18T12:56:21.578Z,2.40
2023-05-18T12:59:04.862Z,2.20
2023-05-18T13:01:18.425Z,2.70
2023-05-18T13:03:27.878Z,1.90
2023-05-18T13:05:37.373Z,2.20
2023-05-18T13:07:57.756Z,2.00
2023-05-18T13:10:21.003Z,1.90
2023-05-18T13:12:52.761Z,2.00
2023-05-18T13:15:20.336Z,2.50
2023-05-18T13:18:03.363Z,2.10
2023-05-18T13:20:37.952Z,2.10
2023-05-18T13:23:01.132Z,2.00
2023-05-18T13:25:30.980Z,2.30
2023-05-18T13:27:56.351Z,2.00
2023-05-18T13:30:06.077Z,2.20
2023-05-18T13:32:35.531Z,2.30
2023-05-18T13:34:48.520Z,2.00
2023-05-18T13:37:09.431Z,2.30
2023-05-18T13:39:39.668Z,2.40
2023-05-18T13:42:10.567Z,2.00
2023-05-18T13:44:39.874Z,2.30
2023-05-18T13:47:00.850Z,2.60
2023-05-18T13:49:20.429Z,2.10
2023-05-18T13:54:10.421Z,2.10
2023-05-18T13:56:39.751Z,2.40
2023-05-18T13:59:09.161Z,2.40
2023-05-18T14:01:33.281Z,2.80
2023-05-18T14:03:45.872Z,4.00
2023-05-18T14:06:15.462Z,6.60
2023-05-18T14:08:44.881Z,8.40
2023-05-18T14:11:07.314Z,9.90
2023-05-18T14:13:26.721Z,10.50
2023-05-18T14:15:47.386Z,10.60
2023-05-18T14:18:07.026Z,12.30
2023-05-18T14:20:38.207Z,11.30
2023-05-18T14:23:00.700Z,12.70
2023-05-18T14:25:30.628Z,11.20
2023-05-18T14:28:00.195Z,12.10
2023-05-18T14:30:20.433Z,11.60
2023-05-18T14:32:33.142Z,9.90
2023-05-18T14:35:02.823Z,9.20
2023-05-18T14:37:15.362Z,10.00
2023-05-18T14:39:45.337Z,9.70
2023-05-18T14:41:54.956Z,8.50
2023-05-18T14:44:24.514Z,8.60
2023-05-18T14:46:54.242Z,6.40
2023-05-18T14:49:23.748Z,7.80
2023-05-18T14:51:45.015Z,6.30
2023-05-18T14:54:04.687Z,5.20
2023-05-18T14:56:34.270Z,4.90
2023-05-18T14:59:04.066Z,4.00
2023-05-18T15:01:24.419Z,3.60
2023-05-18T15:03:53.819Z,4.40
2023-05-18T15:06:16.399Z,4.20
2023-05-18T15:08:36.042Z,3.60
2023-05-18T15:11:05.378Z,4.40
2023-05-18T15:13:34.740Z,3.90
2023-05-18T15:16:04.195Z,4.20
2023-05-18T15:18:17.019Z,4.10
2023-05-18T15:20:47.177Z,3.40
2023-05-18T15:23:06.182Z,3.00
2023-05-18T15:25:25.524Z,3.90
2023-05-18T15:27:45.510Z,3.60
2023-05-18T15:30:16.154Z,3.50
2023-05-18T15:32:45.660Z,3.30
2023-05-18T15:35:16.783Z,3.20
2023-05-18T15:37:37.998Z,2.60
2023-05-18T15:40:08.629Z,2.80
2023-05-18T15:42:38.171Z,2.70
2023-05-18T15:45:08.475Z,2.20
2023-05-18T15:47:31.512Z,2.10
2023-05-18T15:49:44.415Z,2.80
2023-05-18T15:51:53.855Z,2.80
2023-05-18T15:54:13.215Z,2.20
2023-05-18T15:56:26.147Z,2.50
2023-05-18T15:58:39.182Z,2.10
2023-05-18T16:00:48.777Z,2.30
2023-05-18T16:02:58.467Z,1.70
2023-05-18T16:05:19.256Z,2.20
2023-05-18T16:07:31.438Z,2.00
2023-05-18T16:09:43.947Z,2.00
2023-05-18T16:11:54.121Z,2.10
2023-05-18T16:14:13.833Z,1.90
2023-05-18T16:16:33.134Z,1.90
2023-05-18T16:19:03.392Z,2.20
2023-05-18T16:21:15.277Z,1.70
2023-05-18T16:23:27.792Z,1.80
2023-05-18T16:25:47.135Z,1.70
2023-05-18T16:28:16.569Z,1.70
2023-05-18T16:30:26.483Z,1.90
2023-05-18T16:32:39.194Z,1.90
2023-05-18T16:34:48.849Z,2.00
2023-05-18T16:37:01.410Z,1.70
2023-05-18T16:39:30.925Z,1.30
2023-05-18T16:41:49.689Z,1.60
2023-05-18T16:44:09.677Z,1.30
2023-05-18T16:46:22.169Z,1.90
2023-05-18T16:48:31.818Z,1.70
2023-05-18T16:51:01.236Z,1.70
2023-05-18T16:53:23.766Z,2.00
2023-05-18T16:55:45.210Z,1.80
2023-05-18T16:57:57.816Z,1.80
2023-05-18T17:00:27.496Z,2.00
2023-05-18T17:02:40.784Z,1.90
2023-05-18T17:05:11.668Z,1.60
2023-05-18T17:07:23.361Z,2.00
2023-05-18T17:09:43.112Z,2.00
2023-05-18T17:11:52.782Z,1.80
2023-05-18T17:14:05.460Z,1.70
2023-05-18T17:16:20.409Z,1.90
2023-05-18T17:18:50.115Z,2.20
2023-05-18T17:21:03.253Z,2.00
2023-05-18T17:23:17.741Z,2.60
2023-05-18T17:25:27.448Z,2.10
2023-05-18T17:27:36.804Z,2.20
2023-05-18T17:29:46.204Z,2.40
2023-05-18T17:31:58.223Z,2.00
2023-05-18T17:34:11.769Z,2.00
2023-05-18T17:36:42.818Z,2.30
2023-05-18T17:38:52.926Z,2.30
2023-05-18T17:41:11.825Z,1.90
2023-05-18T17:43:32.527Z,2.40
2023-05-18T17:45:52.087Z,2.10
2023-05-18T17:48:01.521Z,2.30
2023-05-18T17:50:13.942Z,2.40
2023-05-18T17:52:43.302Z,2.60
2023-05-18T17:54:58.262Z,2.90
2023-05-18T17:57:13.507Z,2.70
2023-05-18T17:59:26.418Z,3.10
2023-05-18T18:01:46.041Z,3.20
2023-05-18T18:04:05.639Z,3.00
2023-05-18T18:06:36.146Z,3.20
2023-05-18T18:09:06.280Z,2.60
2023-05-18T18:11:19.055Z,3.40
2023-05-18T18:13:48.894Z,3.70
2023-05-18T18:15:58.409Z,3.80
2023-05-18T18:18:08.304Z,3.70
2023-05-18T18:20:27.528Z,3.50
2023-05-18T18:22:47.891Z,3.10
2023-05-18T18:25:00.067Z,3.30
2023-05-18T18:27:19.832Z,3.00
2023-05-18T18:29:49.744Z,3.10
2023-05-18T18:32:10.317Z,3.40
2023-05-18T18:34:30.860Z,3.40
2023-05-18T18:36:51.143Z,3.50
2023-05-18T18:39:04.430Z,3.10
2023-05-18T18:41:18.031Z,3.50
2023-05-18T18:43:28.024Z,3.50
2023-05-18T18:45:58.274Z,2.80
2023-05-18T18:48:11.217Z,3.00
2023-05-18T18:50:34.690Z,2.50
2023-05-18T18:52:55.376Z,2.90
2023-05-18T18:55:25.470Z,2.90
2023-05-18T18:57:38.333Z,3.00
2023-05-18T19:00:11.410Z,3.20
2023-05-18T19:02:21.566Z,3.20
2023-05-18T19:04:49.766Z,3.40
2023-05-18T19:07:09.695Z,2.30
2023-05-18T19:09:19.258Z,3.20
2023-05-18T19:11:28.675Z,2.90
2023-05-18T19:13:55.129Z,3.40
2023-05-18T19:16:24.676Z,3.50
2023-05-18T19:18:47.445Z,2.90
2023-05-18T19:21:07.197Z,3.50
2023-05-18T19:23:36.970Z,3.00
2023-05-18T19:25:49.577Z,3.20
2023-05-18T19:28:19.059Z,3.30
2023-05-18T19:30:39.633Z,4.00
2023-05-18T19:33:08.979Z,3.40
2023-05-18T19:35:38.491Z,3.10
2023-05-18T19:38:07.982Z,3.50
2023-05-18T19:40:29.322Z,4.90
2023-05-18T19:42:49.818Z,3.60
2023-05-18T19:45:09.726Z,3.30
2023-05-18T19:49:48.885Z,3.60
2023-05-18T19:52:11.479Z,3.60
2023-05-18T19:54:30.846Z,2.70
2023-05-18T19:56:43.371Z,3.00
2023-05-18T19:58:58.270Z,3.10
2023-05-18T20:01:27.548Z,2.30
2023-05-18T20:03:59.598Z,2.80
2023-05-18T20:06:12.695Z,4.30
2023-05-18T20:08:22.754Z,3.30
2023-05-18T20:10:54.259Z,3.30
2023-05-18T20:13:14.382Z,3.40
2023-05-18T20:15:37.404Z,2.80
2023-05-18T20:17:50.118Z,2.80
2023-05-18T20:20:02.354Z,3.00
2023-05-18T20:22:22.534Z,2.60
2023-05-18T20:24:36.826Z,3.10
2023-05-18T20:27:06.655Z,3.10
2023-05-18T20:29:26.741Z,3.00
2023-05-18T20:31:39.626Z,2.50
2023-05-18T20:33:49.285Z,3.00
2023-05-18T20:36:19.557Z,2.90
2023-05-18T20:38:49.888Z,2.80
2023-05-18T20:41:00.041Z,3.00
2023-05-18T20:43:18.269Z,2.80
2023-05-18T20:45:49.566Z,2.70
2023-05-18T20:48:02.420Z,3.20
2023-05-18T20:50:23.398Z,3.00
2023-05-18T20:52:54.036Z,2.30
2023-05-18T20:55:24.239Z,2.70
2023-05-18T20:57:54.032Z,2.50
2023-05-18T21:00:23.955Z,2.30
2023-05-18T21:02:34.136Z,2.60
2023-05-18T21:04:53.523Z,2.70
2023-05-18T21:07:12.876Z,2.70
2023-05-18T21:09:42.892Z,2.50
2023-05-18T21:12:12.789Z,2.90
2023-05-18T21:14:43.554Z,2.60
2023-05-18T21:16:53.093Z,2.50
2023-05-18T21:19:10.082Z,3.00
2023-05-18T21:21:19.771Z,2.50
2023-05-18T21:23:29.215Z,2.50
2023-05-18T21:25:38.720Z,3.00
2023-05-18T21:27:57.988Z,2.40
2023-05-18T21:30:08.385Z,2.50
2023-05-18T21:32:37.923Z,3.10
2023-05-18T21:34:47.767Z,3.60
2023-05-18T21:36:57.833Z,3.20
2023-05-18T21:39:10.037Z,3.20
2023-05-18T21:41:40.749Z,2.90
2023-05-18T21:43:50.174Z,3.00
2023-05-18T21:46:19.855Z,2.50
2023-05-18T21:48:32.545Z,2.80
2023-05-18T21:50:52.740Z,2.50
2023-05-18T21:53:15.138Z,2.60
2023-05-18T21:55:44.664Z,2.30
2023-05-18T21:58:03.305Z,2.30
2023-05-18T22:00:17.061Z,2.70
2023-05-18T22:02:26.228Z,3.00
2023-05-18T22:04:45.603Z,2.50
2023-05-18T22:07:15.062Z,3.30
2023-05-18T22:09:44.640Z,2.90
2023-05-18T22:11:55.095Z,2.80
2023-05-18T22:14:18.207Z,3.00
2023-05-18T22:16:47.799Z,2.90
2023-05-18T22:19:17.732Z,2.80
2023-05-18T22:21:47.077Z,2.50
2023-05-18T22:24:16.810Z,2.50
2023-05-18T22:26:29.501Z,2.50
2023-05-18T22:28:58.960Z,2.60
2023-05-18T22:31:18.486Z,2.90
2023-05-18T22:33:28.155Z,2.90
2023-05-18T22:35:57.946Z,2.70
2023-05-18T22:38:18.258Z,3.00
2023-05-18T22:40:37.988Z,3.40
2023-05-18T22:42:47.591Z,2.80
2023-05-18T22:44:57.318Z,3.00
2023-05-18T22:47:07.007Z,2.70
2023-05-18T22:49:16.329Z,2.70
2023-05-18T22:51:36.702Z,3.20
2023-05-18T22:54:05.984Z,2.60
2023-05-18T22:56:35.307Z,3.00
2023-05-18T22:58:44.671Z,3.10
2023-05-18T23:00:54.252Z,8.30
2023-05-18T23:03:03.734Z,3.30
2023-05-18T23:05:13.648Z,2.90
2023-05-18T23:07:36.572Z,2.70
2023-05-18T23:10:06.681Z,3.20
2023-05-18T23:12:30.701Z,2.80
2023-05-18T23:15:02.876Z,8.30
2023-05-18T23:17:31.316Z,5.30
2023-05-18T23:19:51.024Z,5.20
2023-05-18T23:22:20.493Z,3.30
2023-05-18T23:24:29.933Z,5.70
2023-05-18T23:26:49.518Z,4.40
2023-05-18T23:28:59.034Z,3.70
2023-05-18T23:31:17.937Z,3.20
2023-05-18T23:33:39.742Z,3.00
2023-05-18T23:35:51.483Z,3.30
2023-05-18T23:38:22.443Z,2.50
2023-05-18T23:40:43.133Z,2.60
2023-05-18T23:43:13.566Z,2.70
2023-05-18T23:45:44.436Z,4.00
2023-05-18T23:48:15.676Z,3.60
2023-05-18T23:52:47.934Z,3.00
2023-05-18T23:55:17.738Z,2.60
2023-05-18T23:57:48.220Z,3.10
